createdAt,value
2022-08-22T00:00:31.180Z,20.92
2022-08-22T00:02:47.978Z,23.25
2022-08-22T00:03:15.838Z,20.89
2022-08-22T00:03:32.870Z,20.90
2022-08-22T00:06:31.667Z,20.90
2022-08-22T00:09:36.469Z,20.92
2022-08-22T00:12:21.179Z,20.92
2022-08-22T00:14:56.619Z,20.95
2022-08-22T00:17:45.502Z,20.93
2022-08-22T00:20:37.949Z,20.91
2022-08-22T00:23:19.618Z,20.88
2022-08-22T00:26:15.415Z,20.85
2022-08-22T00:29:06.646Z,20.79
2022-08-22T00:31:40.472Z,20.74
2022-08-22T00:34:17.223Z,20.67
2022-08-22T00:36:53.539Z,20.67
2022-08-22T00:39:45.140Z,20.64
2022-08-22T00:42:31.734Z,20.61
2022-08-22T00:45:18.245Z,20.58
2022-08-22T00:48:00.688Z,20.54
2022-08-22T00:50:30.987Z,20.51
2022-08-22T00:53:33.944Z,20.49
2022-08-22T00:56:22.329Z,20.49
2022-08-22T00:59:23.909Z,20.49
2022-08-22T01:02:32.387Z,20.46
2022-08-22T01:05:37.187Z,20.43
2022-08-22T01:08:23.070Z,20.41
2022-08-22T01:10:53.232Z,20.42
2022-08-22T01:13:20.736Z,20.40
2022-08-22T01:15:53.722Z,20.37
2022-08-22T01:18:41.910Z,20.40
2022-08-22T01:21:33.756Z,20.41
2022-08-22T01:24:26.386Z,20.43
2022-08-22T01:27:08.633Z,20.45
2022-08-22T01:30:23.424Z,20.49
2022-08-22T01:33:32.487Z,20.51
2022-08-22T01:36:41.372Z,20.50
2022-08-22T01:39:26.821Z,20.48
2022-08-22T01:42:31.663Z,20.41
2022-08-22T01:45:46.714Z,20.34
2022-08-22T01:48:27.851Z,20.28
2022-08-22T01:51:02.271Z,20.26
2022-08-22T01:53:48.377Z,20.27
2022-08-22T01:56:24.041Z,20.28
2022-08-22T01:59:34.036Z,20.28
2022-08-22T02:02:25.605Z,20.27
2022-08-22T02:05:09.980Z,20.25
2022-08-22T02:07:46.456Z,20.21
2022-08-22T02:10:44.237Z,20.21
2022-08-22T02:13:23.501Z,20.19
2022-08-22T02:16:05.190Z,20.17
2022-08-22T02:18:47.056Z,20.14
2022-08-22T02:21:22.584Z,20.10
2022-08-22T02:24:01.498Z,20.09
2022-08-22T02:27:09.071Z,20.06
2022-08-22T02:29:44.097Z,20.02
2022-08-22T02:32:17.104Z,20.00
2022-08-22T02:35:07.592Z,19.99
2022-08-22T02:37:55.361Z,19.95
2022-08-22T02:40:43.733Z,19.92
2022-08-22T02:43:44.706Z,19.92
2022-08-22T02:46:25.340Z,19.91
2022-08-22T02:48:52.838Z,19.93
2022-08-22T02:51:31.376Z,19.90
2022-08-22T02:54:43.965Z,19.87
2022-08-22T02:57:22.841Z,19.83
2022-08-22T03:00:32.337Z,19.81
2022-08-22T03:03:05.722Z,19.79
2022-08-22T03:05:36.052Z,19.79
2022-08-22T03:08:32.667Z,19.78
2022-08-22T03:11:26.641Z,19.77
2022-08-22T03:14:36.506Z,19.78
2022-08-22T03:17:09.714Z,19.80
2022-08-22T03:20:01.351Z,19.75
2022-08-22T03:22:51.434Z,19.74
2022-08-22T03:25:40.610Z,19.72
2022-08-22T03:28:19.567Z,19.74
2022-08-22T03:31:16.952Z,19.74
2022-08-22T03:33:45.417Z,19.75
2022-08-22T03:36:19.626Z,19.77
2022-08-22T03:39:08.161Z,19.79
2022-08-22T03:42:37.413Z,19.79
2022-08-22T03:45:29.765Z,19.81
2022-08-22T03:48:35.583Z,19.83
2022-08-22T03:51:23.074Z,19.86
2022-08-22T03:53:50.256Z,19.92
2022-08-22T03:56:42.426Z,19.95
2022-08-22T03:59:31.419Z,20.00
2022-08-22T04:02:43.296Z,20.05
2022-08-22T04:05:40.687Z,20.11
2022-08-22T04:08:14.331Z,20.17
2022-08-22T04:10:58.435Z,20.24
2022-08-22T04:14:07.869Z,20.36
2022-08-22T04:16:48.453Z,20.57
2022-08-22T04:20:00.876Z,20.85
2022-08-22T04:22:48.918Z,21.24
2022-08-22T04:25:26.023Z,21.58
2022-08-22T04:28:03.477Z,21.94
2022-08-22T04:30:42.818Z,22.33
2022-08-22T04:33:37.219Z,22.66
2022-08-22T04:36:29.444Z,22.98
2022-08-22T04:39:13.267Z,23.13
2022-08-22T04:42:31.353Z,23.13
2022-08-22T04:45:06.332Z,23.13
2022-08-22T04:47:44.347Z,23.31
2022-08-22T04:50:31.131Z,23.52
2022-08-22T04:53:09.956Z,23.74
2022-08-22T04:56:11.748Z,24.09
2022-08-22T04:58:49.618Z,24.42
2022-08-22T05:01:21.554Z,24.45
2022-08-22T05:04:14.430Z,24.24
2022-08-22T05:06:50.709Z,24.01
2022-08-22T05:09:25.865Z,23.92
2022-08-22T05:11:58.230Z,24.08
2022-08-22T05:14:40.089Z,24.40
2022-08-22T05:17:11.922Z,24.49
2022-08-22T05:19:51.240Z,24.52
2022-08-22T05:22:25.278Z,24.52
2022-08-22T05:24:59.740Z,24.51
2022-08-22T05:27:30.964Z,24.56
2022-08-22T05:30:05.296Z,24.59
2022-08-22T05:32:56.913Z,24.61
2022-08-22T05:35:58.175Z,24.68
2022-08-22T05:38:39.928Z,24.71
2022-08-22T05:41:20.441Z,24.74
2022-08-22T05:43:48.891Z,24.78
2022-08-22T05:46:26.844Z,24.84
2022-08-22T05:49:04.057Z,24.90
2022-08-22T05:51:44.715Z,24.97
2022-08-22T05:54:34.221Z,25.04
2022-08-22T05:57:24.240Z,25.03
2022-08-22T06:00:01.042Z,25.06
2022-08-22T06:02:55.610Z,25.12
2022-08-22T06:05:31.707Z,25.17
2022-08-22T06:08:14.281Z,25.25
2022-08-22T06:10:49.470Z,25.32
2022-08-22T06:13:24.666Z,25.41
2022-08-22T06:16:09.624Z,25.46
2022-08-22T06:18:46.040Z,25.53
2022-08-22T06:21:32.556Z,25.60
2022-08-22T06:26:57.844Z,25.72
2022-08-22T06:33:17.675Z,25.82
2022-08-22T06:36:09.607Z,25.84
2022-08-22T06:39:13.559Z,25.90
2022-08-22T06:42:34.671Z,25.95
2022-08-22T06:45:26.731Z,25.99
2022-08-22T06:48:06.963Z,26.05
2022-08-22T06:50:41.860Z,26.12
2022-08-22T06:53:22.421Z,26.15
2022-08-22T06:55:56.293Z,26.18
2022-08-22T06:58:45.278Z,26.20
2022-08-22T07:01:32.344Z,26.25
2022-08-22T07:04:05.651Z,26.31
2022-08-22T07:06:51.021Z,26.37
2022-08-22T07:12:20.512Z,26.42
2022-08-22T07:14:54.098Z,26.46
2022-08-22T07:17:31.810Z,26.47
2022-08-22T07:20:04.858Z,26.54
2022-08-22T07:22:41.490Z,26.55
2022-08-22T07:25:14.751Z,26.57
2022-08-22T07:31:31.924Z,26.80
2022-08-22T07:34:34.575Z,26.89
2022-08-22T07:37:27.640Z,26.90
2022-08-22T07:40:01.281Z,26.95
2022-08-22T07:45:49.474Z,27.16
2022-08-22T07:49:05.965Z,27.21
2022-08-22T07:51:58.772Z,27.34
2022-08-22T07:54:28.597Z,27.32
2022-08-22T07:57:10.579Z,27.35
2022-08-22T07:59:56.123Z,27.34
2022-08-22T08:02:25.356Z,27.34
2022-08-22T08:04:55.157Z,27.38
2022-08-22T08:07:25.890Z,27.50
2022-08-22T08:10:13.146Z,27.67
2022-08-22T08:13:02.282Z,27.65
2022-08-22T08:15:34.789Z,27.71
2022-08-22T08:18:06.299Z,27.85
2022-08-22T08:20:38.601Z,28.15
2022-08-22T08:23:10.372Z,28.92
2022-08-22T08:26:10.648Z,29.94
2022-08-22T08:28:48.295Z,30.61
2022-08-22T08:31:49.967Z,31.11
2022-08-22T08:34:26.749Z,31.36
2022-08-22T08:37:13.962Z,31.57
2022-08-22T08:39:52.107Z,31.90
2022-08-22T08:43:18.110Z,31.90
2022-08-22T08:46:16.078Z,32.83
2022-08-22T08:49:10.028Z,32.95
2022-08-22T08:52:09.372Z,32.94
2022-08-22T08:54:55.850Z,33.16
2022-08-22T08:58:06.687Z,33.51
2022-08-22T09:00:57.557Z,33.35
2022-08-22T09:03:47.865Z,33.74
2022-08-22T09:06:56.602Z,33.77
2022-08-22T09:09:40.080Z,33.38
2022-08-22T09:12:36.778Z,32.10
2022-08-22T09:15:43.108Z,32.22
2022-08-22T09:18:38.185Z,33.64
2022-08-22T09:24:37.462Z,34.75
2022-08-22T09:27:32.832Z,34.36
2022-08-22T09:33:11.881Z,34.57
2022-08-22T09:35:49.202Z,34.07
2022-08-22T09:38:25.866Z,34.59
2022-08-22T09:43:48.433Z,34.63
2022-08-22T09:46:16.981Z,34.16
2022-08-22T09:48:57.769Z,34.28
2022-08-22T09:51:53.821Z,33.91
2022-08-22T09:54:31.703Z,32.98
2022-08-22T09:57:18.179Z,33.98
2022-08-22T10:00:12.473Z,34.82
2022-08-22T10:03:03.233Z,34.68
2022-08-22T10:05:43.661Z,35.19
2022-08-22T10:08:34.705Z,35.63
2022-08-22T10:11:23.860Z,35.82
2022-08-22T10:14:05.080Z,35.38
2022-08-22T10:16:50.843Z,35.61
2022-08-22T10:19:36.985Z,35.54
2022-08-22T10:22:39.622Z,34.32
2022-08-22T10:25:41.662Z,35.40
2022-08-22T10:28:32.057Z,35.85
2022-08-22T10:31:08.329Z,36.09
2022-08-22T10:33:41.506Z,36.38
2022-08-22T10:36:19.627Z,35.87
2022-08-22T10:39:11.928Z,36.06
2022-08-22T10:42:00.746Z,35.64
2022-08-22T10:44:40.684Z,34.72
2022-08-22T10:47:24.549Z,34.05
2022-08-22T10:50:14.261Z,32.67
2022-08-22T10:53:12.260Z,31.82
2022-08-22T10:55:43.273Z,31.32
2022-08-22T10:58:15.702Z,31.54
2022-08-22T11:00:56.877Z,32.10
2022-08-22T11:03:57.644Z,32.52
2022-08-22T11:06:36.498Z,32.31
2022-08-22T11:09:36.279Z,32.04
2022-08-22T11:12:44.583Z,31.38
2022-08-22T11:15:33.259Z,31.04
2022-08-22T11:18:20.905Z,31.25
2022-08-22T11:21:00.354Z,31.53
2022-08-22T11:26:49.527Z,31.86
2022-08-22T11:29:35.545Z,31.42
2022-08-22T11:32:38.428Z,31.21
2022-08-22T11:42:21.864Z,31.21
2022-08-22T11:45:25.965Z,31.33
2022-08-22T11:48:10.078Z,31.34
2022-08-22T11:51:25.068Z,31.17
2022-08-22T11:54:31.246Z,31.01
2022-08-22T11:57:11.760Z,31.05
2022-08-22T12:00:20.712Z,31.28
2022-08-22T12:03:13.559Z,31.18
2022-08-22T12:05:55.789Z,31.10
2022-08-22T12:08:37.774Z,30.98
2022-08-22T12:11:19.911Z,30.85
2022-08-22T12:14:49.653Z,30.79
2022-08-22T12:17:55.267Z,30.77
2022-08-22T12:20:58.007Z,30.98
2022-08-22T12:23:48.598Z,31.14
2022-08-22T12:26:21.985Z,31.18
2022-08-22T12:29:33.448Z,31.17
2022-08-22T12:32:27.862Z,31.18
2022-08-22T12:35:20.530Z,31.30
2022-08-22T12:38:26.652Z,31.42
2022-08-22T12:41:28.028Z,31.52
2022-08-22T12:44:32.539Z,31.62
2022-08-22T12:47:11.244Z,31.66
2022-08-22T12:49:55.703Z,31.48
2022-08-22T12:56:02.955Z,31.33
2022-08-22T12:58:37.963Z,31.26
2022-08-22T13:01:10.907Z,31.28
2022-08-22T13:03:55.520Z,31.30
2022-08-22T13:06:38.063Z,31.36
2022-08-22T13:09:09.848Z,31.40
2022-08-22T13:11:40.548Z,31.39
2022-08-22T13:14:18.506Z,31.43
2022-08-22T13:16:55.613Z,31.40
2022-08-22T13:19:32.314Z,31.42
2022-08-22T13:22:09.869Z,31.40
2022-08-22T13:24:52.432Z,31.31
2022-08-22T13:27:29.757Z,31.28
2022-08-22T13:30:04.951Z,31.30
2022-08-22T13:32:47.359Z,31.30
2022-08-22T13:35:43.349Z,31.30
2022-08-22T13:38:17.495Z,31.34
2022-08-22T13:40:58.752Z,31.38
2022-08-22T13:43:31.802Z,31.39
2022-08-22T13:46:25.614Z,31.45
2022-08-22T13:49:00.969Z,31.41
2022-08-22T13:52:28.821Z,31.44
2022-08-22T13:55:29.514Z,31.47
2022-08-22T13:58:30.205Z,31.50
2022-08-22T14:01:10.556Z,31.59
2022-08-22T14:03:48.685Z,31.71
2022-08-22T14:06:55.218Z,31.87
2022-08-22T14:10:04.972Z,31.90
2022-08-22T14:13:09.948Z,31.80
2022-08-22T14:15:45.836Z,31.85
2022-08-22T14:18:31.661Z,31.84
2022-08-22T14:33:52.631Z,31.58
2022-08-22T14:36:40.306Z,31.44
2022-08-22T14:39:30.284Z,31.21
2022-08-22T14:42:27.285Z,30.96
2022-08-22T14:45:26.973Z,30.77
2022-08-22T14:48:29.602Z,30.75
2022-08-22T14:50:55.148Z,30.87
2022-08-22T14:53:26.967Z,30.97
2022-08-22T14:56:01.381Z,31.06
2022-08-22T14:58:38.654Z,31.13
2022-08-22T15:01:25.167Z,31.19
2022-08-22T15:04:05.897Z,31.19
2022-08-22T15:06:48.483Z,31.16
2022-08-22T15:10:03.225Z,31.17
2022-08-22T15:12:37.921Z,31.12
2022-08-22T15:15:52.517Z,31.07
2022-08-22T15:18:31.710Z,31.00
2022-08-22T15:21:08.594Z,30.86
2022-08-22T15:23:45.326Z,30.71
2022-08-22T15:26:30.774Z,30.63
2022-08-22T15:29:17.296Z,30.58
2022-08-22T15:31:47.140Z,30.53
2022-08-22T15:34:52.351Z,30.53
2022-08-22T15:37:21.586Z,30.55
2022-08-22T15:40:08.069Z,30.57
2022-08-22T15:42:46.203Z,30.57
2022-08-22T15:45:37.410Z,30.60
2022-08-22T15:48:28.223Z,30.52
2022-08-22T15:50:57.273Z,30.41
2022-08-22T15:53:30.259Z,30.32
2022-08-22T15:56:07.053Z,30.26
2022-08-22T15:58:40.146Z,30.17
2022-08-22T16:01:22.739Z,30.08
2022-08-22T16:04:09.749Z,30.00
2022-08-22T16:06:40.119Z,29.91
2022-08-22T16:09:29.977Z,29.82
2022-08-22T16:12:04.056Z,29.73
2022-08-22T16:14:34.171Z,29.64
2022-08-22T16:17:28.502Z,29.55
2022-08-22T16:20:27.475Z,29.46
2022-08-22T16:23:04.236Z,29.35
2022-08-22T16:26:03.586Z,29.21
2022-08-22T16:28:57.221Z,29.10
2022-08-22T16:31:41.585Z,28.94
2022-08-22T16:34:18.066Z,28.81
2022-08-22T16:37:10.450Z,28.68
2022-08-22T16:39:54.838Z,28.53
2022-08-22T16:42:26.338Z,28.37
2022-08-22T16:45:02.791Z,28.26
2022-08-22T16:47:52.219Z,28.18
2022-08-22T16:50:38.572Z,28.05
2022-08-22T16:53:23.990Z,27.97
2022-08-22T16:56:18.916Z,27.85
2022-08-22T16:59:22.983Z,27.73
2022-08-22T17:02:09.491Z,27.60
2022-08-22T17:04:56.216Z,27.49
2022-08-22T17:08:02.469Z,27.37
2022-08-22T17:10:40.307Z,27.30
2022-08-22T17:13:12.668Z,27.21
2022-08-22T17:16:17.548Z,27.13
2022-08-22T17:19:12.244Z,26.99
2022-08-22T17:21:50.645Z,26.91
2022-08-22T17:24:32.149Z,26.87
2022-08-22T17:27:13.428Z,26.78
2022-08-22T17:30:23.973Z,26.72
2022-08-22T17:33:35.693Z,26.60
2022-08-22T17:36:26.693Z,26.52
2022-08-22T17:39:21.580Z,26.40
2022-08-22T17:42:20.849Z,26.31
2022-08-22T17:45:09.922Z,26.24
2022-08-22T17:48:20.024Z,26.17
2022-08-22T17:50:56.228Z,26.13
2022-08-22T17:53:33.213Z,26.16
2022-08-22T17:56:15.420Z,26.19
2022-08-22T17:58:52.149Z,26.23
2022-08-22T18:02:04.475Z,26.36
2022-08-22T18:04:47.274Z,26.35
2022-08-22T18:07:28.147Z,26.25
2022-08-22T18:10:21.728Z,26.13
2022-08-22T18:13:08.096Z,25.98
2022-08-22T18:15:47.806Z,25.90
2022-08-22T18:18:25.773Z,25.87
2022-08-22T18:21:35.247Z,25.94
2022-08-22T18:24:23.745Z,25.95
2022-08-22T18:27:35.302Z,26.00
2022-08-22T18:30:20.924Z,26.07
2022-08-22T18:33:12.979Z,26.21
2022-08-22T18:35:54.893Z,26.43
2022-08-22T18:38:40.603Z,26.49
2022-08-22T18:41:26.117Z,26.54
2022-08-22T18:43:57.786Z,26.57
2022-08-22T18:46:45.202Z,26.53
2022-08-22T18:49:19.783Z,26.50
2022-08-22T18:52:14.726Z,26.49
2022-08-22T18:55:05.775Z,26.38
2022-08-22T18:57:54.553Z,26.31
2022-08-22T19:00:59.945Z,26.15
2022-08-22T19:03:51.616Z,25.99
2022-08-22T19:06:48.188Z,25.83
2022-08-22T19:09:46.383Z,25.72
2022-08-22T19:12:36.197Z,25.70
2022-08-22T19:15:26.781Z,25.67
2022-08-22T19:18:28.086Z,25.63
2022-08-22T19:21:49.020Z,25.66
2022-08-22T19:24:28.351Z,25.71
2022-08-22T19:27:16.279Z,25.76
2022-08-22T19:29:44.078Z,25.79
2022-08-22T19:32:35.470Z,25.82
2022-08-22T19:36:04.535Z,25.81
2022-08-22T19:39:09.158Z,25.78
2022-08-22T19:41:40.127Z,25.75
2022-08-22T19:44:38.629Z,25.73
2022-08-22T19:47:17.552Z,25.72
2022-08-22T19:50:05.483Z,25.70
2022-08-22T19:52:33.069Z,25.67
2022-08-22T19:55:18.342Z,25.62
2022-08-22T19:57:48.663Z,25.57
2022-08-22T20:00:54.797Z,25.52
2022-08-22T20:03:55.982Z,25.47
2022-08-22T20:06:46.254Z,25.43
2022-08-22T20:09:25.539Z,25.45
2022-08-22T20:12:17.132Z,25.46
2022-08-22T20:14:47.639Z,25.42
2022-08-22T20:17:27.321Z,25.41
2022-08-22T20:20:17.520Z,25.37
2022-08-22T20:23:10.029Z,25.34
2022-08-22T20:25:54.414Z,25.28
2022-08-22T20:28:45.106Z,25.22
2022-08-22T20:31:21.759Z,25.16
2022-08-22T20:33:55.736Z,25.14
2022-08-22T20:36:28.507Z,25.13
2022-08-22T20:39:03.179Z,25.15
2022-08-22T20:41:41.206Z,25.15
2022-08-22T20:44:29.609Z,25.14
2022-08-22T20:47:09.299Z,25.12
2022-08-22T20:49:52.884Z,25.09
2022-08-22T20:52:20.052Z,25.05
2022-08-22T20:55:16.167Z,25.00
2022-08-22T20:57:49.476Z,24.93
2022-08-22T21:00:22.595Z,24.85
2022-08-22T21:02:59.126Z,24.76
2022-08-22T21:05:35.036Z,24.69
2022-08-22T21:08:09.025Z,24.62
2022-08-22T21:10:57.656Z,24.55
2022-08-22T21:13:36.748Z,24.50
2022-08-22T21:16:45.499Z,24.42
2022-08-22T21:19:41.818Z,24.39
2022-08-22T21:22:38.310Z,24.37
2022-08-22T21:25:05.796Z,24.37
2022-08-22T21:27:35.117Z,24.40
2022-08-22T21:30:08.736Z,24.38
2022-08-22T21:32:43.148Z,24.35
2022-08-22T21:35:30.243Z,24.29
2022-08-22T21:38:01.648Z,24.25
2022-08-22T21:40:28.793Z,24.21
2022-08-22T21:43:12.714Z,24.18
2022-08-22T21:45:40.031Z,24.14
2022-08-22T21:48:33.812Z,24.13
2022-08-22T21:51:23.064Z,24.12
2022-08-22T21:54:17.638Z,24.04
2022-08-22T21:56:50.592Z,23.94
2022-08-22T21:59:51.559Z,23.87
2022-08-22T22:02:31.467Z,23.85
2022-08-22T22:05:11.529Z,23.82
2022-08-22T22:07:44.006Z,23.81
2022-08-22T22:10:15.449Z,23.83
2022-08-22T22:12:44.924Z,23.82
2022-08-22T22:15:15.801Z,23.78
2022-08-22T22:17:46.384Z,23.77
2022-08-22T22:20:16.384Z,23.74
2022-08-22T22:22:47.185Z,23.69
2022-08-22T22:25:40.645Z,23.63
2022-08-22T22:28:13.701Z,23.55
2022-08-22T22:30:43.416Z,23.49
2022-08-22T22:33:13.619Z,23.42
2022-08-22T22:35:40.922Z,23.37
2022-08-22T22:38:12.986Z,23.37
2022-08-22T22:40:41.636Z,23.33
2022-08-22T22:43:10.309Z,23.32
2022-08-22T22:45:38.462Z,23.32
2022-08-22T22:48:06.764Z,23.32
2022-08-22T22:50:41.069Z,23.32
2022-08-22T22:53:09.581Z,23.32
2022-08-22T22:55:36.804Z,23.31
2022-08-22T22:58:11.179Z,23.29
2022-08-22T23:00:39.111Z,23.28
2022-08-22T23:03:09.504Z,23.27
2022-08-22T23:05:36.641Z,23.25
2022-08-22T23:08:04.916Z,23.26
2022-08-22T23:10:32.504Z,23.23
2022-08-22T23:13:00.650Z,23.20
2022-08-22T23:15:28.320Z,23.16
2022-08-22T23:17:55.527Z,23.14
2022-08-22T23:20:23.117Z,23.10
2022-08-22T23:22:50.499Z,23.04
2022-08-22T23:25:17.595Z,22.98
2022-08-22T23:27:44.768Z,22.97
2022-08-22T23:30:19.307Z,22.98
2022-08-22T23:32:46.536Z,23.02
2022-08-22T23:35:13.754Z,23.05
2022-08-22T23:37:41.050Z,22.98
2022-08-22T23:40:09.652Z,22.91
2022-08-22T23:42:36.775Z,22.82
2022-08-22T23:45:04.549Z,22.74
2022-08-22T23:47:31.532Z,22.66
2022-08-22T23:49:58.548Z,22.63
2022-08-22T23:52:31.675Z,22.58
2022-08-22T23:54:58.728Z,22.53
2022-08-22T23:57:27.345Z,22.51
2022-08-22T23:59:57.914Z,22.46
